Aeroporto :
LOGIN :

Iscrizione | Disclaimer

   EN    FR    IT 

 










Sommario :    VFR   VFR Marginale   IFR   IFR Intensivo   IFR Molto Intensivo
Visibilità : 
Base nubi : 
>= 8 km
>= 3000ft
5 / 8 km
1000 / 3000 ft
1500m / 5 km
500 / 1000 ft
800 / 1500m
200 / 500 ft
< 800m
< 200 ft
Simboli :   Temporali  Nebbia  Neve Forte  Precipitazioni Forti  Vento > 20 kt
SIGMETs :   Varie  Temporali  Ghiacco  Turbolenza  Onda orograficha  Ceneri Vulcaniche






- Altitudine del aeroporto : 459 ft
- Codice IATA : CER


LFRC - Cherbourg / Maupertus

ULTIMO METAR :
  • 270600Z AUTO 20021G36KT 170V230 5000 -RA BR BKN010/// OVC015/// ///TCU 16/15 Q1006 TEMPO 2000 RA BKN007 BKN015CB

METARs OBSOLETI :
  • 270530Z AUTO 19022G37KT 9999 DZ OVC008 16/15 Q1006 TEMPO 4000 SHRA BKN020TCU BECMG 27020G40KT
  • 270500Z AUTO 18022G35KT 150V210 6000 RA BKN010 BKN014 OVC019 16/15 Q1006
  • 270430Z AUTO 17017G27KT 8000 -RA BKN012/// OVC019/// ///TCU 16/15 Q1006
  • 270400Z AUTO 18016KT 9999 OVC011/// ///TCU 17/15 Q1007
  • 270330Z AUTO 18015KT 150V210 9999 OVC010 17/15 Q1008

TAF TAF LFRC
Valido dal 27 a 06 ore il 27 a 15 ore UTC


270500Z 2706/2715 19020G45KT 9999 BKN020
BECMG 2706/2708 27020G40KT
TEMPO 2706/2707 2000 RA BKN007 BKN015CB
PROB30
TEMPO 2707/2709 BKN010
PROB30
TEMPO 2707/2715 4000 SHRA BKN020TCU
BECMG 2711/2713 25020G30KT



MetMap, La meteo Aeronautica in un colpo d'occhio ! - Copyright ORBIFLY Dicembre 2007 - Disclaimer

ORBIFLY MET'MAP TEAM :

Programmazione e sviluppo : Alexandra Zaïnal
Concezione : Baudouin d'Aumeries
Aiuto per la programmazione : Marc-Olivier Méhu
Supporto tecnico e logistico : Manuel Goepfert
Aiuto per la traduzione : Arnaldo La Scala

Contatto : metmap@orbifly.com




FONTI E CREDITI :

   NOAA